sensor_id;sensor_type;location;lat;lon;timestamp;P1;durP1;ratioP1;P2;durP2;ratioP2
59458;SDS011;45269;43.568;22.244;2022-08-25T00:00:40;14.48;;;11.40;;
59458;SDS011;45269;43.568;22.244;2022-08-25T00:03:05;13.95;;;11.70;;
59458;SDS011;45269;43.568;22.244;2022-08-25T00:05:30;14.18;;;11.55;;
59458;SDS011;45269;43.568;22.244;2022-08-25T00:07:56;13.85;;;12.20;;
59458;SDS011;45269;43.568;22.244;2022-08-25T00:10:21;14.85;;;10.45;;
59458;SDS011;45269;43.568;22.244;2022-08-25T00:12:47;14.32;;;11.32;;
59458;SDS011;45269;43.568;22.244;2022-08-25T00:15:12;14.68;;;12.25;;
59458;SDS011;45269;43.568;22.244;2022-08-25T00:17:37;13.50;;;11.95;;
59458;SDS011;45269;43.568;22.244;2022-08-25T00:20:03;14.20;;;12.57;;
59458;SDS011;45269;43.568;22.244;2022-08-25T00:22:29;15.88;;;12.02;;
59458;SDS011;45269;43.568;22.244;2022-08-25T00:24:54;13.98;;;12.45;;
59458;SDS011;45269;43.568;22.244;2022-08-25T00:27:20;14.10;;;10.82;;
59458;SDS011;45269;43.568;22.244;2022-08-25T00:29:45;12.48;;;11.18;;
59458;SDS011;45269;43.568;22.244;2022-08-25T00:32:11;12.18;;;10.90;;
59458;SDS011;45269;43.568;22.244;2022-08-25T00:34:37;11.50;;;10.38;;
59458;SDS011;45269;43.568;22.244;2022-08-25T00:37:03;12.88;;;11.57;;
59458;SDS011;45269;43.568;22.244;2022-08-25T00:39:31;14.40;;;11.25;;
59458;SDS011;45269;43.568;22.244;2022-08-25T00:41:56;12.32;;;11.10;;
59458;SDS011;45269;43.568;22.244;2022-08-25T00:44:22;14.52;;;10.55;;
59458;SDS011;45269;43.568;22.244;2022-08-25T00:46:49;12.45;;;11.30;;
59458;SDS011;45269;43.568;22.244;2022-08-25T00:49:18;16.73;;;11.02;;
59458;SDS011;45269;43.568;22.244;2022-08-25T00:51:56;11.73;;;10.43;;
59458;SDS011;45269;43.568;22.244;2022-08-25T00:54:24;12.25;;;10.18;;
59458;SDS011;45269;43.568;22.244;2022-08-25T00:56:51;14.48;;;11.02;;
59458;SDS011;45269;43.568;22.244;2022-08-25T00:59:20;13.02;;;11.35;;
59458;SDS011;45269;43.568;22.244;2022-08-25T01:01:47;14.88;;;11.30;;
59458;SDS011;45269;43.568;22.244;2022-08-25T01:04:13;13.65;;;11.15;;
59458;SDS011;45269;43.568;22.244;2022-08-25T01:06:38;14.82;;;11.75;;
59458;SDS011;45269;43.568;22.244;2022-08-25T01:09:05;20.05;;;11.68;;
59458;SDS011;45269;43.568;22.244;2022-08-25T01:11:32;13.63;;;11.43;;
59458;SDS011;45269;43.568;22.244;2022-08-25T01:13:58;16.35;;;10.93;;
59458;SDS011;45269;43.568;22.244;2022-08-25T01:16:27;13.20;;;10.38;;
59458;SDS011;45269;43.568;22.244;2022-08-25T01:18:54;16.75;;;10.85;;
59458;SDS011;45269;43.568;22.244;2022-08-25T01:21:21;15.05;;;10.25;;
59458;SDS011;45269;43.568;22.244;2022-08-25T01:23:48;15.68;;;11.38;;
59458;SDS011;45269;43.568;22.244;2022-08-25T01:26:16;14.10;;;10.45;;
59458;SDS011;45269;43.568;22.244;2022-08-25T01:28:42;16.70;;;10.68;;
59458;SDS011;45269;43.568;22.244;2022-08-25T01:31:28;15.95;;;11.55;;
59458;SDS011;45269;43.568;22.244;2022-08-25T01:33:54;15.65;;;11.57;;
59458;SDS011;45269;43.568;22.244;2022-08-25T01:36:20;17.02;;;11.32;;
59458;SDS011;45269;43.568;22.244;2022-08-25T01:38:46;13.93;;;11.27;;
59458;SDS011;45269;43.568;22.244;2022-08-25T01:41:11;12.48;;;10.75;;
59458;SDS011;45269;43.568;22.244;2022-08-25T01:43:37;15.68;;;11.20;;
59458;SDS011;45269;43.568;22.244;2022-08-25T01:46:02;19.50;;;10.57;;
59458;SDS011;45269;43.568;22.244;2022-08-25T01:48:28;14.80;;;10.98;;
59458;SDS011;45269;43.568;22.244;2022-08-25T01:50:53;18.33;;;11.80;;
59458;SDS011;45269;43.568;22.244;2022-08-25T01:55:44;14.45;;;12.15;;
59458;SDS011;45269;43.568;22.244;2022-08-25T01:58:20;16.05;;;11.18;;
59458;SDS011;45269;43.568;22.244;2022-08-25T02:00:49;16.13;;;12.18;;
59458;SDS011;45269;43.568;22.244;2022-08-25T02:03:15;11.82;;;10.73;;
59458;SDS011;45269;43.568;22.244;2022-08-25T02:05:41;13.70;;;11.25;;
59458;SDS011;45269;43.568;22.244;2022-08-25T02:08:07;15.07;;;10.48;;
59458;SDS011;45269;43.568;22.244;2022-08-25T02:10:32;15.77;;;11.02;;
59458;SDS011;45269;43.568;22.244;2022-08-25T02:12:58;12.88;;;10.65;;
59458;SDS011;45269;43.568;22.244;2022-08-25T02:15:23;14.27;;;10.57;;
59458;SDS011;45269;43.568;22.244;2022-08-25T02:17:48;14.50;;;11.95;;
59458;SDS011;45269;43.568;22.244;2022-08-25T02:20:14;13.32;;;10.10;;
59458;SDS011;45269;43.568;22.244;2022-08-25T02:22:39;15.60;;;11.50;;
59458;SDS011;45269;43.568;22.244;2022-08-25T02:25:04;11.35;;;9.43;;
59458;SDS011;45269;43.568;22.244;2022-08-25T02:27:30;15.48;;;10.70;;
59458;SDS011;45269;43.568;22.244;2022-08-25T02:29:55;13.82;;;10.55;;
59458;SDS011;45269;43.568;22.244;2022-08-25T02:32:21;13.57;;;10.02;;
59458;SDS011;45269;43.568;22.244;2022-08-25T02:34:46;13.95;;;10.82;;
59458;SDS011;45269;43.568;22.244;2022-08-25T02:37:11;12.57;;;10.07;;
59458;SDS011;45269;43.568;22.244;2022-08-25T02:39:38;15.05;;;11.18;;
59458;SDS011;45269;43.568;22.244;2022-08-25T02:42:04;15.45;;;11.07;;
59458;SDS011;45269;43.568;22.244;2022-08-25T02:44:30;15.18;;;10.05;;
59458;SDS011;45269;43.568;22.244;2022-08-25T02:46:56;17.48;;;11.18;;
59458;SDS011;45269;43.568;22.244;2022-08-25T02:49:21;14.20;;;12.25;;
59458;SDS011;45269;43.568;22.244;2022-08-25T02:51:46;17.50;;;13.10;;
59458;SDS011;45269;43.568;22.244;2022-08-25T02:54:11;23.35;;;16.23;;
59458;SDS011;45269;43.568;22.244;2022-08-25T02:56:37;23.77;;;15.38;;
59458;SDS011;45269;43.568;22.244;2022-08-25T02:59:03;19.02;;;15.25;;
59458;SDS011;45269;43.568;22.244;2022-08-25T03:01:29;17.60;;;14.95;;
59458;SDS011;45269;43.568;22.244;2022-08-25T03:03:55;17.63;;;15.10;;
59458;SDS011;45269;43.568;22.244;2022-08-25T03:06:20;17.30;;;14.02;;
59458;SDS011;45269;43.568;22.244;2022-08-25T03:08:47;15.57;;;13.80;;
59458;SDS011;45269;43.568;22.244;2022-08-25T03:11:12;16.30;;;13.73;;
59458;SDS011;45269;43.568;22.244;2022-08-25T03:13:38;14.68;;;12.85;;
59458;SDS011;45269;43.568;22.244;2022-08-25T03:16:04;15.10;;;13.50;;
59458;SDS011;45269;43.568;22.244;2022-08-25T03:18:30;14.68;;;13.18;;
59458;SDS011;45269;43.568;22.244;2022-08-25T03:20:55;14.15;;;12.35;;
59458;SDS011;45269;43.568;22.244;2022-08-25T03:23:20;18.05;;;11.82;;
59458;SDS011;45269;43.568;22.244;2022-08-25T03:25:46;15.00;;;10.30;;
59458;SDS011;45269;43.568;22.244;2022-08-25T03:28:30;11.95;;;10.35;;
59458;SDS011;45269;43.568;22.244;2022-08-25T03:30:57;12.25;;;10.25;;
59458;SDS011;45269;43.568;22.244;2022-08-25T03:33:24;16.63;;;11.60;;
59458;SDS011;45269;43.568;22.244;2022-08-25T03:35:49;16.42;;;12.82;;
59458;SDS011;45269;43.568;22.244;2022-08-25T03:38:15;15.07;;;12.27;;
59458;SDS011;45269;43.568;22.244;2022-08-25T03:40:41;13.88;;;12.45;;
59458;SDS011;45269;43.568;22.244;2022-08-25T03:43:06;16.58;;;12.55;;
59458;SDS011;45269;43.568;22.244;2022-08-25T03:45:31;16.50;;;11.35;;
59458;SDS011;45269;43.568;22.244;2022-08-25T03:47:57;15.25;;;10.68;;
59458;SDS011;45269;43.568;22.244;2022-08-25T03:50:22;14.35;;;10.95;;
59458;SDS011;45269;43.568;22.244;2022-08-25T03:52:52;14.82;;;10.32;;
59458;SDS011;45269;43.568;22.244;2022-08-25T03:55:18;12.82;;;10.77;;
59458;SDS011;45269;43.568;22.244;2022-08-25T03:57:43;14.80;;;10.60;;
59458;SDS011;45269;43.568;22.244;2022-08-25T04:00:09;14.75;;;10.50;;
59458;SDS011;45269;43.568;22.244;2022-08-25T04:02:36;15.90;;;13.48;;
59458;SDS011;45269;43.568;22.244;2022-08-25T04:05:02;15.85;;;13.15;;
59458;SDS011;45269;43.568;22.244;2022-08-25T04:07:28;14.68;;;12.95;;
59458;SDS011;45269;43.568;22.244;2022-08-25T04:09:53;17.77;;;14.15;;
59458;SDS011;45269;43.568;22.244;2022-08-25T04:12:20;19.00;;;13.82;;
59458;SDS011;45269;43.568;22.244;2022-08-25T04:14:46;15.15;;;13.40;;
59458;SDS011;45269;43.568;22.244;2022-08-25T04:17:11;17.45;;;15.70;;
59458;SDS011;45269;43.568;22.244;2022-08-25T04:19:36;19.15;;;14.63;;
59458;SDS011;45269;43.568;22.244;2022-08-25T04:22:02;16.33;;;14.52;;
59458;SDS011;45269;43.568;22.244;2022-08-25T04:24:27;17.55;;;14.32;;
59458;SDS011;45269;43.568;22.244;2022-08-25T04:26:53;16.38;;;13.80;;
59458;SDS011;45269;43.568;22.244;2022-08-25T04:29:20;18.80;;;15.35;;
59458;SDS011;45269;43.568;22.244;2022-08-25T04:31:46;16.98;;;14.23;;
59458;SDS011;45269;43.568;22.244;2022-08-25T04:34:12;16.77;;;13.57;;
59458;SDS011;45269;43.568;22.244;2022-08-25T04:36:37;18.35;;;13.48;;
59458;SDS011;45269;43.568;22.244;2022-08-25T04:39:03;17.38;;;12.88;;
59458;SDS011;45269;43.568;22.244;2022-08-25T04:41:28;17.08;;;13.77;;
59458;SDS011;45269;43.568;22.244;2022-08-25T04:43:55;16.40;;;13.68;;
59458;SDS011;45269;43.568;22.244;2022-08-25T04:46:22;19.13;;;11.75;;
59458;SDS011;45269;43.568;22.244;2022-08-25T04:48:49;16.90;;;11.38;;
59458;SDS011;45269;43.568;22.244;2022-08-25T04:51:17;18.17;;;11.85;;
59458;SDS011;45269;43.568;22.244;2022-08-25T04:53:43;13.82;;;11.93;;
59458;SDS011;45269;43.568;22.244;2022-08-25T04:56:09;13.00;;;11.35;;
59458;SDS011;45269;43.568;22.244;2022-08-25T04:58:35;13.95;;;11.73;;
59458;SDS011;45269;43.568;22.244;2022-08-25T05:01:04;16.40;;;11.85;;
59458;SDS011;45269;43.568;22.244;2022-08-25T05:03:30;15.70;;;12.63;;
59458;SDS011;45269;43.568;22.244;2022-08-25T05:05:56;13.40;;;11.77;;
59458;SDS011;45269;43.568;22.244;2022-08-25T05:08:21;17.63;;;13.35;;
59458;SDS011;45269;43.568;22.244;2022-08-25T05:10:46;16.45;;;13.35;;
59458;SDS011;45269;43.568;22.244;2022-08-25T05:13:12;16.00;;;14.15;;
59458;SDS011;45269;43.568;22.244;2022-08-25T05:15:37;19.10;;;13.95;;
59458;SDS011;45269;43.568;22.244;2022-08-25T05:18:15;15.38;;;13.88;;
59458;SDS011;45269;43.568;22.244;2022-08-25T05:20:41;17.92;;;13.23;;
59458;SDS011;45269;43.568;22.244;2022-08-25T05:23:06;17.08;;;13.10;;
59458;SDS011;45269;43.568;22.244;2022-08-25T05:25:32;17.95;;;13.30;;
59458;SDS011;45269;43.568;22.244;2022-08-25T05:27:57;17.63;;;12.65;;
59458;SDS011;45269;43.568;22.244;2022-08-25T05:30:23;15.77;;;13.57;;
59458;SDS011;45269;43.568;22.244;2022-08-25T05:32:48;15.88;;;13.93;;
59458;SDS011;45269;43.568;22.244;2022-08-25T05:35:14;18.85;;;13.23;;
59458;SDS011;45269;43.568;22.244;2022-08-25T05:37:40;14.50;;;12.95;;
59458;SDS011;45269;43.568;22.244;2022-08-25T05:40:05;19.23;;;13.40;;
59458;SDS011;45269;43.568;22.244;2022-08-25T05:42:32;14.32;;;12.70;;
59458;SDS011;45269;43.568;22.244;2022-08-25T05:44:57;15.43;;;12.93;;
59458;SDS011;45269;43.568;22.244;2022-08-25T05:47:23;14.80;;;13.35;;
59458;SDS011;45269;43.568;22.244;2022-08-25T05:49:48;14.95;;;13.43;;
59458;SDS011;45269;43.568;22.244;2022-08-25T05:52:13;15.98;;;13.30;;
59458;SDS011;45269;43.568;22.244;2022-08-25T05:54:39;21.33;;;15.05;;
59458;SDS011;45269;43.568;22.244;2022-08-25T05:57:05;16.27;;;14.60;;
59458;SDS011;45269;43.568;22.244;2022-08-25T05:59:31;16.45;;;14.77;;
59458;SDS011;45269;43.568;22.244;2022-08-25T06:01:56;16.98;;;15.27;;
59458;SDS011;45269;43.568;22.244;2022-08-25T06:04:40;17.40;;;15.05;;
59458;SDS011;45269;43.568;22.244;2022-08-25T06:07:06;18.25;;;15.52;;
59458;SDS011;45269;43.568;22.244;2022-08-25T06:09:31;17.55;;;14.38;;
59458;SDS011;45269;43.568;22.244;2022-08-25T06:11:57;22.23;;;15.77;;
59458;SDS011;45269;43.568;22.244;2022-08-25T06:14:22;16.50;;;14.48;;
59458;SDS011;45269;43.568;22.244;2022-08-25T06:16:48;18.17;;;16.10;;
59458;SDS011;45269;43.568;22.244;2022-08-25T06:19:16;17.45;;;15.65;;
59458;SDS011;45269;43.568;22.244;2022-08-25T06:21:41;19.50;;;15.45;;
59458;SDS011;45269;43.568;22.244;2022-08-25T06:24:07;19.30;;;15.55;;
59458;SDS011;45269;43.568;22.244;2022-08-25T06:26:34;18.38;;;16.35;;
59458;SDS011;45269;43.568;22.244;2022-08-25T06:28:59;19.83;;;15.68;;
59458;SDS011;45269;43.568;22.244;2022-08-25T06:31:24;22.02;;;17.65;;
59458;SDS011;45269;43.568;22.244;2022-08-25T06:33:50;19.73;;;16.10;;
59458;SDS011;45269;43.568;22.244;2022-08-25T06:36:16;17.95;;;14.35;;
59458;SDS011;45269;43.568;22.244;2022-08-25T06:38:43;18.25;;;13.85;;
59458;SDS011;45269;43.568;22.244;2022-08-25T06:41:08;23.92;;;18.10;;
59458;SDS011;45269;43.568;22.244;2022-08-25T06:43:34;22.38;;;15.90;;
59458;SDS011;45269;43.568;22.244;2022-08-25T06:46:10;19.17;;;16.77;;
59458;SDS011;45269;43.568;22.244;2022-08-25T06:48:36;17.98;;;15.90;;
59458;SDS011;45269;43.568;22.244;2022-08-25T06:51:06;19.55;;;15.15;;
59458;SDS011;45269;43.568;22.244;2022-08-25T06:53:31;17.30;;;14.90;;
59458;SDS011;45269;43.568;22.244;2022-08-25T06:55:57;17.50;;;15.60;;
59458;SDS011;45269;43.568;22.244;2022-08-25T06:58:23;17.55;;;14.32;;
59458;SDS011;45269;43.568;22.244;2022-08-25T07:00:48;19.02;;;13.88;;
59458;SDS011;45269;43.568;22.244;2022-08-25T07:03:14;18.88;;;14.02;;
59458;SDS011;45269;43.568;22.244;2022-08-25T07:05:39;14.52;;;12.88;;
59458;SDS011;45269;43.568;22.244;2022-08-25T07:08:05;15.80;;;14.10;;
59458;SDS011;45269;43.568;22.244;2022-08-25T07:10:30;16.13;;;12.85;;
59458;SDS011;45269;43.568;22.244;2022-08-25T07:12:55;18.88;;;13.00;;
59458;SDS011;45269;43.568;22.244;2022-08-25T07:15:21;16.75;;;12.82;;
59458;SDS011;45269;43.568;22.244;2022-08-25T07:17:47;14.13;;;12.60;;
59458;SDS011;45269;43.568;22.244;2022-08-25T07:20:12;16.55;;;13.63;;
59458;SDS011;45269;43.568;22.244;2022-08-25T07:22:38;17.73;;;13.73;;
59458;SDS011;45269;43.568;22.244;2022-08-25T07:25:04;16.35;;;13.68;;
59458;SDS011;45269;43.568;22.244;2022-08-25T07:27:30;17.27;;;14.50;;
59458;SDS011;45269;43.568;22.244;2022-08-25T07:29:56;20.17;;;13.10;;
59458;SDS011;45269;43.568;22.244;2022-08-25T07:32:21;21.13;;;14.45;;
59458;SDS011;45269;43.568;22.244;2022-08-25T07:34:46;17.73;;;13.50;;
59458;SDS011;45269;43.568;22.244;2022-08-25T07:37:30;18.38;;;13.65;;
59458;SDS011;45269;43.568;22.244;2022-08-25T07:39:56;20.52;;;12.57;;
59458;SDS011;45269;43.568;22.244;2022-08-25T07:42:24;19.98;;;12.48;;
59458;SDS011;45269;43.568;22.244;2022-08-25T07:44:51;15.88;;;11.90;;
59458;SDS011;45269;43.568;22.244;2022-08-25T07:47:17;20.38;;;12.35;;
59458;SDS011;45269;43.568;22.244;2022-08-25T07:49:42;15.35;;;12.52;;
59458;SDS011;45269;43.568;22.244;2022-08-25T07:52:08;18.83;;;12.32;;
59458;SDS011;45269;43.568;22.244;2022-08-25T07:54:34;17.08;;;12.20;;
59458;SDS011;45269;43.568;22.244;2022-08-25T07:56:59;15.50;;;11.60;;
59458;SDS011;45269;43.568;22.244;2022-08-25T07:59:25;18.52;;;11.18;;
59458;SDS011;45269;43.568;22.244;2022-08-25T08:01:50;17.10;;;11.30;;
59458;SDS011;45269;43.568;22.244;2022-08-25T08:04:16;17.33;;;11.05;;
59458;SDS011;45269;43.568;22.244;2022-08-25T08:06:41;18.23;;;11.40;;
59458;SDS011;45269;43.568;22.244;2022-08-25T08:09:06;18.58;;;11.10;;
59458;SDS011;45269;43.568;22.244;2022-08-25T08:11:32;15.63;;;10.60;;
59458;SDS011;45269;43.568;22.244;2022-08-25T08:13:58;17.35;;;9.30;;
59458;SDS011;45269;43.568;22.244;2022-08-25T08:16:25;17.73;;;10.15;;
59458;SDS011;45269;43.568;22.244;2022-08-25T08:18:50;13.50;;;9.52;;
59458;SDS011;45269;43.568;22.244;2022-08-25T08:21:20;19.73;;;10.23;;
59458;SDS011;45269;43.568;22.244;2022-08-25T08:23:46;18.27;;;9.70;;
59458;SDS011;45269;43.568;22.244;2022-08-25T08:26:13;13.43;;;9.23;;
59458;SDS011;45269;43.568;22.244;2022-08-25T08:28:38;17.65;;;9.32;;
59458;SDS011;45269;43.568;22.244;2022-08-25T08:31:04;18.50;;;9.68;;
59458;SDS011;45269;43.568;22.244;2022-08-25T08:33:29;16.65;;;8.77;;
59458;SDS011;45269;43.568;22.244;2022-08-25T08:35:59;14.50;;;9.48;;
59458;SDS011;45269;43.568;22.244;2022-08-25T08:38:25;16.38;;;9.32;;
59458;SDS011;45269;43.568;22.244;2022-08-25T08:41:35;15.85;;;8.93;;
59458;SDS011;45269;43.568;22.244;2022-08-25T08:45:00;13.15;;;8.32;;
59458;SDS011;45269;43.568;22.244;2022-08-25T08:50:15;13.65;;;7.90;;
59458;SDS011;45269;43.568;22.244;2022-08-25T08:52:16;15.57;;;7.15;;
59458;SDS011;45269;43.568;22.244;2022-08-25T08:54:43;22.20;;;7.43;;
59458;SDS011;45269;43.568;22.244;2022-08-25T08:57:12;19.02;;;7.55;;
59458;SDS011;45269;43.568;22.244;2022-08-25T08:59:43;15.63;;;7.38;;
59458;SDS011;45269;43.568;22.244;2022-08-25T09:02:12;15.45;;;7.65;;
59458;SDS011;45269;43.568;22.244;2022-08-25T09:05:02;25.17;;;7.05;;
59458;SDS011;45269;43.568;22.244;2022-08-25T09:07:30;19.35;;;6.88;;
59458;SDS011;45269;43.568;22.244;2022-08-25T09:09:57;16.77;;;7.03;;
59458;SDS011;45269;43.568;22.244;2022-08-25T09:12:40;13.88;;;5.95;;
59458;SDS011;45269;43.568;22.244;2022-08-25T09:20:16;20.95;;;6.07;;
59458;SDS011;45269;43.568;22.244;2022-08-25T09:22:55;17.52;;;6.20;;
59458;SDS011;45269;43.568;22.244;2022-08-25T09:25:24;20.92;;;6.35;;
59458;SDS011;45269;43.568;22.244;2022-08-25T09:30:20;19.83;;;5.20;;
59458;SDS011;45269;43.568;22.244;2022-08-25T09:35:24;17.98;;;5.13;;
59458;SDS011;45269;43.568;22.244;2022-08-25T09:37:54;18.05;;;6.10;;
59458;SDS011;45269;43.568;22.244;2022-08-25T09:40:20;20.73;;;5.95;;
59458;SDS011;45269;43.568;22.244;2022-08-25T09:42:49;19.00;;;5.35;;
59458;SDS011;45269;43.568;22.244;2022-08-25T09:45:15;17.05;;;5.60;;
59458;SDS011;45269;43.568;22.244;2022-08-25T09:47:42;22.40;;;6.03;;
59458;SDS011;45269;43.568;22.244;2022-08-25T09:50:07;25.60;;;6.03;;
59458;SDS011;45269;43.568;22.244;2022-08-25T09:52:39;21.75;;;5.50;;
59458;SDS011;45269;43.568;22.244;2022-08-25T09:57:48;32.92;;;6.45;;
59458;SDS011;45269;43.568;22.244;2022-08-25T10:00:15;16.83;;;5.63;;
59458;SDS011;45269;43.568;22.244;2022-08-25T10:02:42;20.92;;;5.50;;
59458;SDS011;45269;43.568;22.244;2022-08-25T10:05:16;24.02;;;5.75;;
59458;SDS011;45269;43.568;22.244;2022-08-25T10:07:47;19.23;;;5.30;;
59458;SDS011;45269;43.568;22.244;2022-08-25T10:10:20;21.33;;;5.57;;
59458;SDS011;45269;43.568;22.244;2022-08-25T10:12:46;28.35;;;5.95;;
59458;SDS011;45269;43.568;22.244;2022-08-25T10:15:16;19.65;;;4.60;;
59458;SDS011;45269;43.568;22.244;2022-08-25T10:17:42;18.10;;;5.43;;
59458;SDS011;45269;43.568;22.244;2022-08-25T10:22:39;23.27;;;5.72;;
59458;SDS011;45269;43.568;22.244;2022-08-25T10:25:06;37.20;;;6.82;;
59458;SDS011;45269;43.568;22.244;2022-08-25T10:27:38;25.83;;;5.83;;
59458;SDS011;45269;43.568;22.244;2022-08-25T10:35:26;16.38;;;5.20;;
59458;SDS011;45269;43.568;22.244;2022-08-25T10:38:06;27.38;;;5.10;;
59458;SDS011;45269;43.568;22.244;2022-08-25T10:40:36;30.83;;;5.88;;
59458;SDS011;45269;43.568;22.244;2022-08-25T10:45:31;39.92;;;6.63;;
59458;SDS011;45269;43.568;22.244;2022-08-25T10:48:23;31.50;;;5.38;;
59458;SDS011;45269;43.568;22.244;2022-08-25T10:56:03;30.58;;;5.50;;
59458;SDS011;45269;43.568;22.244;2022-08-25T11:01:26;30.25;;;4.72;;
59458;SDS011;45269;43.568;22.244;2022-08-25T11:06:24;27.83;;;5.40;;
59458;SDS011;45269;43.568;22.244;2022-08-25T11:08:56;29.33;;;5.00;;
59458;SDS011;45269;43.568;22.244;2022-08-25T11:16:19;28.13;;;5.45;;
59458;SDS011;45269;43.568;22.244;2022-08-25T11:18:50;36.63;;;5.65;;
59458;SDS011;45269;43.568;22.244;2022-08-25T11:21:30;36.45;;;5.60;;
59458;SDS011;45269;43.568;22.244;2022-08-25T11:26:27;33.83;;;6.25;;
59458;SDS011;45269;43.568;22.244;2022-08-25T11:29:16;24.98;;;4.95;;
59458;SDS011;45269;43.568;22.244;2022-08-25T11:31:43;22.65;;;4.75;;
59458;SDS011;45269;43.568;22.244;2022-08-25T11:34:10;24.58;;;4.80;;
59458;SDS011;45269;43.568;22.244;2022-08-25T11:36:38;35.03;;;6.35;;
59458;SDS011;45269;43.568;22.244;2022-08-25T11:51:42;26.23;;;5.22;;
59458;SDS011;45269;43.568;22.244;2022-08-25T11:57:00;20.05;;;4.80;;
59458;SDS011;45269;43.568;22.244;2022-08-25T12:02:33;24.25;;;5.03;;
59458;SDS011;45269;43.568;22.244;2022-08-25T12:04:55;19.88;;;5.18;;
59458;SDS011;45269;43.568;22.244;2022-08-25T12:07:22;23.67;;;4.88;;
59458;SDS011;45269;43.568;22.244;2022-08-25T12:14:51;25.48;;;5.00;;
59458;SDS011;45269;43.568;22.244;2022-08-25T12:17:21;26.70;;;5.40;;
59458;SDS011;45269;43.568;22.244;2022-08-25T12:19:47;28.92;;;5.55;;
59458;SDS011;45269;43.568;22.244;2022-08-25T12:29:52;24.23;;;4.82;;
59458;SDS011;45269;43.568;22.244;2022-08-25T12:32:29;21.75;;;5.35;;
59458;SDS011;45269;43.568;22.244;2022-08-25T12:37:23;23.90;;;5.57;;
59458;SDS011;45269;43.568;22.244;2022-08-25T12:42:21;28.27;;;5.20;;
59458;SDS011;45269;43.568;22.244;2022-08-25T12:44:47;33.45;;;5.75;;
59458;SDS011;45269;43.568;22.244;2022-08-25T12:49:38;29.85;;;5.38;;
59458;SDS011;45269;43.568;22.244;2022-08-25T12:57:00;28.10;;;5.40;;
59458;SDS011;45269;43.568;22.244;2022-08-25T12:59:35;29.58;;;4.50;;
59458;SDS011;45269;43.568;22.244;2022-08-25T13:02:07;32.88;;;5.38;;
59458;SDS011;45269;43.568;22.244;2022-08-25T13:12:49;37.03;;;5.50;;
59458;SDS011;45269;43.568;22.244;2022-08-25T13:15:26;25.13;;;5.43;;
59458;SDS011;45269;43.568;22.244;2022-08-25T13:17:53;25.63;;;5.13;;
59458;SDS011;45269;43.568;22.244;2022-08-25T13:20:27;37.03;;;5.60;;
59458;SDS011;45269;43.568;22.244;2022-08-25T13:22:56;38.53;;;6.07;;
59458;SDS011;45269;43.568;22.244;2022-08-25T13:25:23;32.35;;;4.65;;
59458;SDS011;45269;43.568;22.244;2022-08-25T13:27:54;43.22;;;6.22;;
59458;SDS011;45269;43.568;22.244;2022-08-25T13:32:51;31.50;;;5.38;;
59458;SDS011;45269;43.568;22.244;2022-08-25T13:37:42;20.07;;;4.17;;
59458;SDS011;45269;43.568;22.244;2022-08-25T13:42:34;16.55;;;3.70;;
59458;SDS011;45269;43.568;22.244;2022-08-25T13:45:01;18.20;;;3.67;;
59458;SDS011;45269;43.568;22.244;2022-08-25T13:47:39;18.25;;;3.30;;
59458;SDS011;45269;43.568;22.244;2022-08-25T13:52:39;20.13;;;3.90;;
59458;SDS011;45269;43.568;22.244;2022-08-25T13:55:05;11.70;;;3.22;;
59458;SDS011;45269;43.568;22.244;2022-08-25T13:57:30;12.50;;;3.30;;
59458;SDS011;45269;43.568;22.244;2022-08-25T14:00:03;11.43;;;3.05;;
59458;SDS011;45269;43.568;22.244;2022-08-25T14:02:48;18.25;;;3.78;;
59458;SDS011;45269;43.568;22.244;2022-08-25T14:05:15;21.38;;;3.70;;
59458;SDS011;45269;43.568;22.244;2022-08-25T14:07:51;26.60;;;3.38;;
59458;SDS011;45269;43.568;22.244;2022-08-25T14:10:31;19.25;;;3.35;;
59458;SDS011;45269;43.568;22.244;2022-08-25T14:15:51;21.55;;;3.40;;
59458;SDS011;45269;43.568;22.244;2022-08-25T14:18:20;10.55;;;3.50;;
59458;SDS011;45269;43.568;22.244;2022-08-25T14:20:47;11.70;;;3.35;;
59458;SDS011;45269;43.568;22.244;2022-08-25T14:23:15;16.30;;;3.63;;
59458;SDS011;45269;43.568;22.244;2022-08-25T14:25:41;19.85;;;3.88;;
59458;SDS011;45269;43.568;22.244;2022-08-25T14:28:08;14.75;;;3.63;;
59458;SDS011;45269;43.568;22.244;2022-08-25T14:30:38;14.25;;;3.65;;
59458;SDS011;45269;43.568;22.244;2022-08-25T14:33:05;19.33;;;4.22;;
59458;SDS011;45269;43.568;22.244;2022-08-25T14:35:30;16.40;;;3.88;;
59458;SDS011;45269;43.568;22.244;2022-08-25T14:37:55;15.48;;;3.42;;
59458;SDS011;45269;43.568;22.244;2022-08-25T14:40:21;16.25;;;3.30;;
59458;SDS011;45269;43.568;22.244;2022-08-25T14:42:47;15.15;;;3.53;;
59458;SDS011;45269;43.568;22.244;2022-08-25T14:45:16;15.15;;;3.90;;
59458;SDS011;45269;43.568;22.244;2022-08-25T14:47:41;15.40;;;3.97;;
59458;SDS011;45269;43.568;22.244;2022-08-25T14:50:08;18.23;;;3.67;;
59458;SDS011;45269;43.568;22.244;2022-08-25T14:52:34;17.70;;;3.83;;
59458;SDS011;45269;43.568;22.244;2022-08-25T14:54:59;12.45;;;3.47;;
59458;SDS011;45269;43.568;22.244;2022-08-25T14:57:26;18.25;;;3.85;;
59458;SDS011;45269;43.568;22.244;2022-08-25T14:59:51;18.00;;;3.95;;
59458;SDS011;45269;43.568;22.244;2022-08-25T15:02:18;19.70;;;3.70;;
59458;SDS011;45269;43.568;22.244;2022-08-25T15:04:49;21.67;;;4.40;;
59458;SDS011;45269;43.568;22.244;2022-08-25T15:07:14;15.45;;;3.88;;
59458;SDS011;45269;43.568;22.244;2022-08-25T15:10:06;17.05;;;3.72;;
59458;SDS011;45269;43.568;22.244;2022-08-25T15:12:32;21.25;;;3.75;;
59458;SDS011;45269;43.568;22.244;2022-08-25T15:14:58;15.02;;;3.45;;
59458;SDS011;45269;43.568;22.244;2022-08-25T15:17:23;10.70;;;3.58;;
59458;SDS011;45269;43.568;22.244;2022-08-25T15:19:49;19.08;;;3.83;;
59458;SDS011;45269;43.568;22.244;2022-08-25T15:22:14;9.15;;;3.63;;
59458;SDS011;45269;43.568;22.244;2022-08-25T15:24:39;17.95;;;4.20;;
59458;SDS011;45269;43.568;22.244;2022-08-25T15:27:06;19.80;;;4.07;;
59458;SDS011;45269;43.568;22.244;2022-08-25T15:29:32;10.38;;;4.03;;
59458;SDS011;45269;43.568;22.244;2022-08-25T15:31:59;16.85;;;3.97;;
59458;SDS011;45269;43.568;22.244;2022-08-25T15:34:24;15.57;;;3.80;;
59458;SDS011;45269;43.568;22.244;2022-08-25T15:36:50;21.95;;;4.22;;
59458;SDS011;45269;43.568;22.244;2022-08-25T15:39:16;13.23;;;3.70;;
59458;SDS011;45269;43.568;22.244;2022-08-25T15:41:41;16.27;;;3.47;;
59458;SDS011;45269;43.568;22.244;2022-08-25T15:44:07;19.88;;;3.88;;
59458;SDS011;45269;43.568;22.244;2022-08-25T15:46:34;12.27;;;4.00;;
59458;SDS011;45269;43.568;22.244;2022-08-25T15:48:59;16.63;;;4.10;;
59458;SDS011;45269;43.568;22.244;2022-08-25T15:51:25;18.15;;;3.83;;
59458;SDS011;45269;43.568;22.244;2022-08-25T15:53:51;17.15;;;3.53;;
59458;SDS011;45269;43.568;22.244;2022-08-25T15:56:16;15.27;;;3.67;;
59458;SDS011;45269;43.568;22.244;2022-08-25T15:58:43;20.27;;;4.20;;
59458;SDS011;45269;43.568;22.244;2022-08-25T16:01:17;16.85;;;3.80;;
59458;SDS011;45269;43.568;22.244;2022-08-25T16:03:42;23.52;;;4.40;;
59458;SDS011;45269;43.568;22.244;2022-08-25T16:06:08;15.27;;;4.07;;